Time;durP1;ratioP1;P1;durP2;ratioP2;P2;SDS_P1;SDS_P2;PMS_P1;PMS_P2;Temp;Humidity;BMP_temperature;BMP_pressure;BME280_temperature;BME280_humidity;BME280_pressure;Samples;Min_cycle;Max_cycle;Signal;HPM_P1;HPM_P2
2021/06/30 00:02:04;;;;;;;9.05;4.90;;;;;;;16.67;74.69;100573.34;5014030;28;20037;-78
2021/06/30 00:04:30;;;;;;;9.18;5.68;;;;;;;16.66;74.94;100576.47;5015014;28;20034;-78
2021/06/30 00:06:55;;;;;;;10.60;5.65;;;;;;;16.67;74.84;100573.34;5015639;28;20493;-77
2021/06/30 00:09:21;;;;;;;10.93;5.93;;;;;;;16.68;76.40;100582.56;4976677;28;20041;-78
2021/06/30 00:11:47;;;;;;;8.88;5.30;;;;;;;16.66;74.90;100577.31;5011893;28;20465;-78
2021/06/30 00:14:13;;;;;;;11.30;6.10;;;;;;;16.67;75.52;100576.16;5009491;28;20029;-78
2021/06/30 00:16:40;;;;;;;11.77;6.63;;;;;;;16.63;75.38;100577.97;5014081;28;20103;-77
2021/06/30 00:19:06;;;;;;;11.85;6.60;;;;;;;16.64;75.35;100578.81;5005047;28;20038;-77
2021/06/30 00:21:32;;;;;;;17.73;7.97;;;;;;;16.63;76.36;100572.38;4997074;28;20046;-77
2021/06/30 00:23:57;;;;;;;13.10;7.20;;;;;;;16.62;75.76;100576.31;5011529;28;20080;-78
2021/06/30 00:26:23;;;;;;;15.65;8.13;;;;;;;16.60;76.31;100575.00;5004029;28;20030;-78
2021/06/30 00:28:49;;;;;;;18.77;8.65;;;;;;;16.58;76.74;100572.53;5005513;28;20029;-77
2021/06/30 00:31:15;;;;;;;17.77;9.88;;;;;;;16.60;77.07;100569.38;5014177;28;20423;-77
2021/06/30 00:33:41;;;;;;;21.83;10.45;;;;;;;16.62;77.32;100564.28;5011679;28;20033;-77
2021/06/30 00:36:06;;;;;;;21.23;9.30;;;;;;;16.62;76.82;100565.09;5011244;28;20034;-77
2021/06/30 00:38:32;;;;;;;21.48;10.68;;;;;;;16.59;77.30;100559.34;4997837;28;20030;-77
2021/06/30 00:40:57;;;;;;;20.50;10.43;;;;;;;16.56;76.40;100566.44;4998311;28;20026;-77
2021/06/30 00:43:23;;;;;;;19.40;9.73;;;;;;;16.59;76.44;100565.78;4998065;28;20030;-78
2021/06/30 00:45:49;;;;;;;20.80;9.93;;;;;;;16.59;76.72;100559.34;5004665;28;20026;-78
2021/06/30 00:48:14;;;;;;;26.50;11.30;;;;;;;16.56;76.65;100552.41;5030198;28;20055;-78
2021/06/30 00:50:40;;;;;;;20.48;10.23;;;;;;;16.54;76.59;100557.53;5024503;28;20067;-77
2021/06/30 00:53:05;;;;;;;22.08;9.82;;;;;;;16.57;76.67;100556.03;5013085;28;20117;-77
2021/06/30 00:55:31;;;;;;;21.90;10.52;;;;;;;16.54;76.90;100557.53;4997970;28;20537;-77
2021/06/30 00:57:58;;;;;;;23.45;10.35;;;;;;;16.55;77.03;100559.19;4997925;28;20073;-77
2021/06/30 01:00:23;;;;;;;24.17;11.05;;;;;;;16.54;77.24;100558.34;5015139;28;20036;-77
2021/06/30 01:02:49;;;;;;;25.58;11.73;;;;;;;16.51;77.16;100555.41;5000817;28;20034;-78
2021/06/30 01:05:15;;;;;;;24.25;11.93;;;;;;;16.53;77.41;100555.91;5008567;28;20030;-77
2021/06/30 01:07:41;;;;;;;19.80;10.25;;;;;;;16.53;77.46;100556.72;4984946;28;20030;-77
2021/06/30 01:10:07;;;;;;;23.65;11.40;;;;;;;16.50;77.98;100550.97;4997154;28;20038;-77
2021/06/30 01:12:33;;;;;;;26.17;12.30;;;;;;;16.49;77.76;100557.69;4999858;28;20029;-77
2021/06/30 01:15:09;;;;;;;23.25;10.40;;;;;;;16.49;78.05;100552.94;5029801;28;20045;-78
2021/06/30 01:17:35;;;;;;;24.48;11.95;;;;;;;16.49;78.42;100549.28;4999666;28;20026;-77
2021/06/30 01:20:00;;;;;;;22.52;11.23;;;;;;;16.47;77.49;100551.63;4986440;28;20037;-77
2021/06/30 01:22:26;;;;;;;22.75;11.77;;;;;;;16.48;78.41;100554.06;5008789;28;20531;-78
2021/06/30 01:24:52;;;;;;;21.98;10.75;;;;;;;16.47;77.69;100551.63;4977531;28;20029;-78
2021/06/30 01:27:19;;;;;;;20.55;10.98;;;;;;;16.45;77.62;100542.72;5008776;28;20374;-77
2021/06/30 01:29:45;;;;;;;24.30;11.52;;;;;;;16.44;78.53;100547.50;4973511;28;20026;-77
2021/06/30 01:32:11;;;;;;;24.25;11.30;;;;;;;16.42;77.93;100549.00;4949626;28;20029;-77
2021/06/30 01:34:36;;;;;;;25.98;13.10;;;;;;;16.42;78.08;100554.59;4990369;28;20045;-77
2021/06/30 01:37:02;;;;;;;25.15;13.07;;;;;;;16.38;78.58;100542.38;4999273;28;20559;-77
2021/06/30 01:39:28;;;;;;;22.50;11.52;;;;;;;16.37;77.72;100551.97;4966315;28;20029;-77
2021/06/30 01:41:53;;;;;;;25.02;13.73;;;;;;;16.38;79.87;100553.59;4990847;28;20030;-77
2021/06/30 01:44:19;;;;;;;27.83;13.52;;;;;;;16.34;78.99;100549.81;5011652;28;20042;-77
2021/06/30 01:46:45;;;;;;;28.30;13.43;;;;;;;16.34;78.98;100549.81;5008293;28;20036;-77
2021/06/30 01:49:10;;;;;;;21.95;12.30;;;;;;;16.33;78.51;100551.00;5007261;28;20044;-77
2021/06/30 01:51:36;;;;;;;26.45;13.70;;;;;;;16.33;79.24;100551.00;4999077;28;20034;-77
2021/06/30 01:54:03;;;;;;;35.50;15.90;;;;;;;16.29;79.57;100551.63;4995698;28;20030;-77
2021/06/30 01:56:29;;;;;;;27.90;14.63;;;;;;;16.28;79.52;100554.78;5016451;28;20034;-77
2021/06/30 01:59:06;;;;;;;31.02;16.15;;;;;;;16.27;80.00;100558.75;5001382;28;20105;-77
2021/06/30 02:01:32;;;;;;;32.20;16.83;;;;;;;16.26;81.62;100555.09;4993602;28;20057;-77
2021/06/30 02:03:58;;;;;;;35.10;17.25;;;;;;;16.25;79.92;100558.25;5010733;28;20025;-77
2021/06/30 02:06:24;;;;;;;35.15;18.52;;;;;;;16.22;80.89;100564.53;4998882;28;20036;-77
2021/06/30 02:08:50;;;;;;;30.83;16.95;;;;;;;16.24;81.08;100559.38;5015178;28;20429;-78
2021/06/30 02:11:16;;;;;;;32.60;17.70;;;;;;;16.22;80.72;100570.94;5010513;28;20033;-77
2021/06/30 02:13:41;;;;;;;38.25;19.13;;;;;;;16.24;81.30;100570.59;4995453;28;20054;-78
2021/06/30 02:16:07;;;;;;;37.40;19.05;;;;;;;16.21;80.97;100566.47;5008936;28;20173;-77
2021/06/30 02:18:32;;;;;;;29.35;17.42;;;;;;;16.19;81.31;100576.41;4972201;28;20053;-77
2021/06/30 02:20:58;;;;;;;35.22;19.30;;;;;;;16.17;82.13;100568.31;5009521;28;20041;-77
2021/06/30 02:23:23;;;;;;;32.03;17.27;;;;;;;16.17;81.05;100570.28;4991953;28;20034;-78
2021/06/30 02:25:49;;;;;;;31.30;17.90;;;;;;;16.18;81.84;100567.13;4979761;28;20022;-77
2021/06/30 02:28:15;;;;;;;33.45;18.75;;;;;;;16.16;81.29;100569.47;5002818;28;20030;-77
2021/06/30 02:30:40;;;;;;;30.80;16.70;;;;;;;16.16;81.37;100572.28;4988115;28;20137;-78
2021/06/30 02:33:06;;;;;;;35.30;19.58;;;;;;;16.17;82.70;100571.09;5009290;28;20023;-77
2021/06/30 02:35:31;;;;;;;29.88;16.83;;;;;;;16.18;81.61;100566.31;4998248;28;20033;-77
2021/06/30 02:37:57;;;;;;;32.42;17.40;;;;;;;16.16;81.13;100569.47;4998471;28;20030;-77
2021/06/30 02:40:24;;;;;;;28.33;16.30;;;;;;;16.19;81.65;100568.81;5008675;28;20061;-77
2021/06/30 02:42:49;;;;;;;27.92;16.42;;;;;;;16.19;80.59;100566.00;5007873;28;20085;-77
2021/06/30 02:45:16;;;;;;;28.23;16.25;;;;;;;16.19;81.08;100568.00;4991437;28;20030;-78
2021/06/30 02:47:42;;;;;;;38.72;19.10;;;;;;;16.16;82.90;100568.63;4999424;28;20026;-77
2021/06/30 02:50:08;;;;;;;32.38;17.58;;;;;;;16.15;81.45;100573.41;5012758;28;20371;-78
2021/06/30 02:52:34;;;;;;;31.10;17.90;;;;;;;16.14;81.97;100568.97;4999297;28;20034;-77
2021/06/30 02:55:00;;;;;;;32.58;16.58;;;;;;;16.14;82.01;100571.78;5015256;28;20066;-77
2021/06/30 02:57:25;;;;;;;29.98;16.15;;;;;;;16.13;81.23;100561.72;4987165;28;20058;-77
2021/06/30 02:59:51;;;;;;;32.10;17.77;;;;;;;16.15;81.91;100572.59;5000061;28;20072;-77
2021/06/30 03:02:16;;;;;;;32.00;18.23;;;;;;;16.12;82.00;100560.06;4991649;28;21566;-79
2021/06/30 03:04:42;;;;;;;37.90;20.52;;;;;;;16.10;82.69;100553.94;5018499;28;20034;-77
2021/06/30 03:07:08;;;;;;;32.20;18.45;;;;;;;16.10;82.86;100553.94;4990356;28;20026;-77
2021/06/30 03:09:33;;;;;;;35.13;17.85;;;;;;;16.09;81.78;100560.72;4998244;28;20503;-77
2021/06/30 03:11:59;;;;;;;31.23;17.33;;;;;;;16.08;82.37;100556.28;5010279;28;20030;-77
2021/06/30 03:14:24;;;;;;;34.55;16.80;;;;;;;16.14;82.16;100563.38;5016004;28;20364;-77
2021/06/30 03:16:50;;;;;;;31.15;17.67;;;;;;;16.11;81.41;100563.22;5008683;28;20031;-77
2021/06/30 03:19:16;;;;;;;33.22;18.10;;;;;;;16.08;81.74;100568.31;4979229;28;20494;-77
2021/06/30 03:21:41;;;;;;;30.80;17.88;;;;;;;16.10;82.43;100562.34;4992618;28;20426;-77
2021/06/30 03:24:07;;;;;;;34.05;18.23;;;;;;;16.10;82.23;100565.16;5014787;28;20513;-77
2021/06/30 03:26:33;;;;;;;34.05;18.27;;;;;;;16.05;82.13;100562.56;5001551;28;20033;-77
2021/06/30 03:29:02;;;;;;;34.35;19.52;;;;;;;16.05;82.67;100554.97;5014766;28;20513;-77
2021/06/30 03:31:27;;;;;;;42.60;20.40;;;;;;;16.04;83.34;100567.31;5000443;28;20040;-77
2021/06/30 03:33:53;;;;;;;36.38;18.75;;;;;;;16.03;81.98;100564.84;5020773;28;20029;-77
2021/06/30 03:36:18;;;;;;;35.95;17.40;;;;;;;16.01;82.10;100569.94;5006521;28;20035;-77
2021/06/30 03:38:44;;;;;;;35.22;18.48;;;;;;;16.01;83.16;100569.94;4999305;28;20030;-77
2021/06/30 03:41:09;;;;;;;34.58;19.15;;;;;;;15.99;82.95;100569.44;5018668;28;20034;-78
2021/06/30 03:43:35;;;;;;;34.65;19.10;;;;;;;16.00;82.85;100573.91;5008247;28;20030;-77
2021/06/30 03:46:01;;;;;;;36.05;19.05;;;;;;;15.98;83.16;100573.41;4991429;28;20085;-77
2021/06/30 03:48:26;;;;;;;36.78;19.27;;;;;;;15.99;83.11;100572.25;4992916;28;20492;-77
2021/06/30 03:50:52;;;;;;;37.92;19.80;;;;;;;16.00;83.09;100568.31;5014210;28;20039;-78
2021/06/30 03:53:17;;;;;;;31.35;18.27;;;;;;;15.98;82.15;100571.44;5008741;28;20030;-77
2021/06/30 03:55:43;;;;;;;31.70;17.52;;;;;;;15.98;82.34;100582.63;5001165;28;20032;-77
2021/06/30 03:58:08;;;;;;;30.60;16.67;;;;;;;15.96;82.12;100576.53;4990175;28;20057;-77
2021/06/30 04:00:34;;;;;;;33.28;18.48;;;;;;;15.95;82.11;100580.50;4982524;28;20042;-77
2021/06/30 04:02:59;;;;;;;29.05;16.42;;;;;;;15.94;82.26;100583.63;4973850;28;20035;-77
2021/06/30 04:05:25;;;;;;;34.03;19.00;;;;;;;15.93;82.72;100587.56;4996496;28;20035;-77
2021/06/30 04:07:50;;;;;;;35.97;20.58;;;;;;;15.92;83.80;100591.53;4997852;28;20037;-75
2021/06/30 04:10:19;;;;;;;30.58;17.73;;;;;;;15.90;83.11;100585.44;5002745;28;20034;-77
2021/06/30 04:12:45;;;;;;;37.05;19.45;;;;;;;15.89;82.52;100586.59;4978395;28;20096;-77
2021/06/30 04:15:11;;;;;;;39.28;21.35;;;;;;;15.91;84.55;100573.91;5010073;28;20031;-77
2021/06/30 04:17:36;;;;;;;35.47;20.63;;;;;;;15.88;83.42;100579.31;4994445;28;20042;-77
2021/06/30 04:20:04;;;;;;;34.95;19.80;;;;;;;15.88;82.82;100582.13;5000743;28;20083;-77
2021/06/30 04:22:29;;;;;;;33.60;19.20;;;;;;;15.89;83.03;100583.78;5017667;28;20109;-77
2021/06/30 04:24:55;;;;;;;36.38;19.13;;;;;;;15.89;82.98;100575.41;4981418;28;20023;-77
2021/06/30 04:27:20;;;;;;;34.33;19.98;;;;;;;15.88;83.16;100576.53;4981101;28;20084;-77
2021/06/30 04:29:46;;;;;;;35.53;19.88;;;;;;;15.87;82.93;100575.72;4987414;28;20038;-75
2021/06/30 04:32:11;;;;;;;44.28;25.95;;;;;;;15.88;83.43;100562.53;4988466;28;20029;-75
2021/06/30 04:34:37;;;;;;;38.28;22.63;;;;;;;15.84;83.02;100568.78;5005960;28;20034;-75
2021/06/30 04:37:03;;;;;;;39.67;23.17;;;;;;;15.84;83.26;100574.38;5000338;28;20025;-74
2021/06/30 04:39:28;;;;;;;37.92;23.48;;;;;;;15.83;84.11;100575.53;4997106;28;20029;-74
2021/06/30 04:41:54;;;;;;;37.97;22.15;;;;;;;15.84;83.50;100573.56;5000617;28;20030;-75
2021/06/30 04:44:20;;;;;;;38.97;22.00;;;;;;;15.85;83.24;100576.06;4951550;28;20084;-75
2021/06/30 04:46:46;;;;;;;39.05;21.38;;;;;;;15.86;83.38;100571.28;4977197;28;20033;-75
2021/06/30 04:49:11;;;;;;;39.20;21.90;;;;;;;15.87;82.95;100578.50;5004834;28;20060;-74
2021/06/30 04:51:37;;;;;;;34.78;19.65;;;;;;;15.84;83.17;100573.56;4977939;28;20029;-75
2021/06/30 04:54:02;;;;;;;38.50;21.52;;;;;;;15.84;83.56;100581.97;4982898;28;20041;-74
2021/06/30 04:56:29;;;;;;;42.53;22.60;;;;;;;15.83;85.25;100577.53;4982548;28;20030;-75
2021/06/30 04:58:55;;;;;;;38.38;22.52;;;;;;;15.81;84.10;100580.66;4984441;28;20694;-75
2021/06/30 05:01:21;;;;;;;41.47;23.00;;;;;;;15.83;84.48;100589.53;4966104;28;20022;-75
2021/06/30 05:03:46;;;;;;;36.00;20.77;;;;;;;15.81;84.13;100580.66;5011589;28;20053;-75
2021/06/30 05:06:12;;;;;;;40.65;22.60;;;;;;;15.82;85.76;100589.88;4998257;28;20105;-75
2021/06/30 05:08:39;;;;;;;40.35;22.52;;;;;;;15.83;85.31;100595.16;4978937;28;20040;-75
2021/06/30 05:11:04;;;;;;;37.97;21.35;;;;;;;15.82;85.13;100595.47;4981981;28;20101;-75
2021/06/30 05:13:30;;;;;;;59.50;33.08;;;;;;;15.85;84.11;100598.47;4977427;28;20061;-77
2021/06/30 05:15:55;;;;;;;69.82;40.28;;;;;;;15.92;84.08;100597.13;4998396;28;20057;-73
2021/06/30 05:18:21;;;;;;;66.03;39.55;;;;;;;15.95;84.94;100599.28;5015074;28;20030;-73
2021/06/30 05:20:47;;;;;;;64.15;36.70;;;;;;;15.97;84.70;100609.00;4999441;28;20036;-72
2021/06/30 05:23:13;;;;;;;58.22;34.58;;;;;;;16.01;84.63;100600.75;5011599;28;20051;-73
2021/06/30 05:25:38;;;;;;;55.70;32.70;;;;;;;16.04;85.19;100611.31;4997540;28;20041;-72
2021/06/30 05:28:04;;;;;;;50.83;30.05;;;;;;;16.07;85.11;100610.66;4992916;28;20033;-73
2021/06/30 05:30:30;;;;;;;49.78;29.23;;;;;;;16.07;85.12;100607.84;4994734;28;20038;-74
2021/06/30 05:32:55;;;;;;;49.15;27.48;;;;;;;16.05;85.00;100611.00;5012229;28;20057;-74
2021/06/30 05:35:21;;;;;;;46.75;26.55;;;;;;;16.04;84.83;100608.50;4981359;28;20493;-74
2021/06/30 05:37:46;;;;;;;39.42;24.05;;;;;;;16.03;84.95;100610.50;4996994;28;20030;-74
2021/06/30 05:40:12;;;;;;;46.00;26.25;;;;;;;16.03;85.18;100610.50;4992260;28;20430;-74
2021/06/30 05:42:38;;;;;;;43.30;25.55;;;;;;;16.04;85.92;100608.50;4979555;28;20062;-75
2021/06/30 05:45:06;;;;;;;42.63;24.20;;;;;;;16.01;86.13;100609.16;4947642;28;20026;-75
2021/06/30 05:47:32;;;;;;;43.53;26.17;;;;;;;16.00;86.69;100610.34;4992772;28;20022;-75
2021/06/30 05:49:57;;;;;;;42.63;23.98;;;;;;;16.05;85.45;100607.38;4979740;28;20042;-75
2021/06/30 05:52:23;;;;;;;41.33;24.33;;;;;;;16.04;86.07;100611.31;5009914;28;20038;-75
2021/06/30 05:54:48;;;;;;;37.90;22.85;;;;;;;16.11;85.07;100613.63;4991759;28;20038;-76
2021/06/30 05:57:14;;;;;;;36.72;22.00;;;;;;;16.12;84.28;100607.69;4989271;28;20034;-75
2021/06/30 05:59:40;;;;;;;32.65;19.77;;;;;;;16.14;84.67;100611.00;4973103;28;20514;-76
2021/06/30 06:02:05;;;;;;;33.22;21.50;;;;;;;16.17;84.03;100607.53;4991467;28;20022;-75
2021/06/30 06:04:32;;;;;;;38.85;24.02;;;;;;;16.19;84.96;100607.22;4979559;28;20435;-76
2021/06/30 06:06:57;;;;;;;39.20;22.45;;;;;;;16.20;85.27;100608.84;4994495;28;20030;-76
2021/06/30 06:09:23;;;;;;;39.03;23.58;;;;;;;16.22;85.36;100612.97;4996556;28;20438;-75
2021/06/30 06:11:48;;;;;;;36.08;22.40;;;;;;;16.25;85.30;100617.91;4976735;28;20038;-76
2021/06/30 06:14:14;;;;;;;33.42;21.55;;;;;;;16.28;84.98;100608.03;4980110;28;20061;-75
2021/06/30 06:16:39;;;;;;;40.50;24.00;;;;;;;16.33;84.66;100610.66;4971323;28;20034;-75
2021/06/30 06:19:05;;;;;;;35.10;23.02;;;;;;;16.37;84.77;100619.22;4978222;28;20518;-72
2021/06/30 06:21:32;;;;;;;41.97;25.70;;;;;;;16.36;86.70;100617.59;4979258;28;20436;-74
2021/06/30 06:23:58;;;;;;;37.28;23.13;;;;;;;16.38;85.79;100615.25;4979813;28;20033;-73
2021/06/30 06:26:30;;;;;;;35.80;23.50;;;;;;;16.45;85.11;100624.00;4994575;28;20027;-74
2021/06/30 06:28:56;;;;;;;36.15;22.63;;;;;;;16.47;85.25;100619.72;4962305;28;20098;-75
2021/06/30 06:31:21;;;;;;;37.30;22.70;;;;;;;16.54;85.00;100633.22;4964469;28;20031;-75
2021/06/30 06:33:47;;;;;;;41.08;25.08;;;;;;;16.59;85.13;100629.44;5000084;28;20093;-76
2021/06/30 06:36:13;;;;;;;35.20;21.58;;;;;;;16.64;84.59;100632.06;4946779;28;20035;-76
2021/06/30 06:38:39;;;;;;;35.83;22.20;;;;;;;16.69;84.17;100629.09;4986107;28;20035;-75
2021/06/30 06:41:08;;;;;;;32.53;20.98;;;;;;;16.74;83.85;100632.56;4991425;28;20026;-75
2021/06/30 06:43:34;;;;;;;30.38;20.48;;;;;;;16.77;83.43;100627.44;4991083;28;20030;-75
2021/06/30 06:46:00;;;;;;;35.25;23.08;;;;;;;16.83;84.05;100631.75;4996781;28;20030;-75
2021/06/30 06:48:25;;;;;;;33.83;22.50;;;;;;;16.87;84.08;100630.72;4999462;28;20023;-73
2021/06/30 06:50:51;;;;;;;34.90;22.48;;;;;;;16.92;83.86;100632.53;4982242;28;20035;-76
2021/06/30 06:53:16;;;;;;;32.67;23.02;;;;;;;16.98;83.43;100645.22;4991239;28;20484;-75
2021/06/30 06:55:42;;;;;;;31.92;21.40;;;;;;;17.04;82.84;100638.28;4969330;28;20030;-75
2021/06/30 06:58:08;;;;;;;31.52;21.23;;;;;;;17.07;82.95;100642.41;5004525;28;20498;-75
2021/06/30 07:00:35;;;;;;;33.40;20.55;;;;;;;17.12;82.65;100631.81;5019325;28;20129;-75
2021/06/30 07:03:00;;;;;;;27.80;19.05;;;;;;;17.18;82.15;100622.03;4995054;28;20042;-75
2021/06/30 07:05:26;;;;;;;29.80;20.17;;;;;;;17.25;82.01;100626.34;5001254;28;20402;-75
2021/06/30 07:07:52;;;;;;;31.23;21.73;;;;;;;17.31;82.02;100627.78;5018263;28;20470;-75
2021/06/30 07:10:17;;;;;;;30.48;19.65;;;;;;;17.34;81.74;100630.75;5015800;28;20491;-74
2021/06/30 07:12:43;;;;;;;31.63;20.92;;;;;;;17.39;81.75;100629.75;5009865;28;20034;-74
2021/06/30 07:15:10;;;;;;;30.70;20.48;;;;;;;17.43;81.45;100622.28;5019258;28;20064;-75
2021/06/30 07:17:36;;;;;;;28.98;19.92;;;;;;;17.48;81.27;100633.31;5031395;28;20086;-75
2021/06/30 07:20:03;;;;;;;30.92;20.60;;;;;;;17.54;81.28;100634.78;4981761;28;20030;-74
2021/06/30 07:22:29;;;;;;;30.85;19.77;;;;;;;17.59;81.03;100636.56;5010360;28;20068;-74
2021/06/30 07:24:54;;;;;;;27.63;19.85;;;;;;;17.64;80.69;100633.56;5018613;28;20030;-74
2021/06/30 07:27:20;;;;;;;27.77;18.98;;;;;;;17.69;80.62;100633.38;5019305;28;20029;-74
2021/06/30 07:29:45;;;;;;;29.58;19.88;;;;;;;17.75;80.47;100628.41;5001309;28;20180;-74
2021/06/30 07:32:11;;;;;;;29.02;19.23;;;;;;;17.79;80.22;100635.00;5015753;28;20042;-74
2021/06/30 07:34:36;;;;;;;30.92;19.13;;;;;;;17.84;80.11;100643.22;5011687;28;20030;-74
2021/06/30 07:37:02;;;;;;;31.67;19.33;;;;;;;17.90;79.96;100641.06;5018872;28;20030;-74
2021/06/30 07:39:29;;;;;;;29.25;18.45;;;;;;;17.94;79.90;100642.84;5019590;28;20091;-74
2021/06/30 07:41:55;;;;;;;28.15;18.60;;;;;;;17.98;79.48;100643.81;4990451;28;20042;-75
2021/06/30 07:44:21;;;;;;;30.23;19.35;;;;;;;18.00;79.98;100643.47;4997854;28;20030;-75
2021/06/30 07:46:46;;;;;;;32.30;20.95;;;;;;;18.00;80.02;100647.09;5022980;28;20429;-75
2021/06/30 07:49:12;;;;;;;27.90;19.80;;;;;;;18.06;80.11;100648.53;5006716;28;20030;-75
2021/06/30 07:51:37;;;;;;;29.10;18.73;;;;;;;18.11;79.79;100646.69;4994063;28;20030;-75
2021/06/30 07:54:03;;;;;;;26.40;18.38;;;;;;;18.15;79.31;100650.47;4980407;28;20030;-75
2021/06/30 07:56:36;;;;;;;29.70;18.40;;;;;;;18.19;79.36;100649.44;4994219;28;20033;-75
2021/06/30 07:59:05;;;;;;;28.00;18.35;;;;;;;18.23;79.20;100646.78;4973022;28;20077;-75
2021/06/30 08:01:31;;;;;;;27.55;17.65;;;;;;;18.28;79.20;100644.56;4974453;28;20037;-75
2021/06/30 08:03:56;;;;;;;27.30;17.60;;;;;;;18.34;78.74;100656.44;4991760;28;20034;-75
2021/06/30 08:06:22;;;;;;;27.25;17.00;;;;;;;18.37;78.40;100647.31;4969781;28;20031;-75
2021/06/30 08:08:48;;;;;;;25.08;16.20;;;;;;;18.43;78.89;100643.13;4986958;28;20034;-75
2021/06/30 08:11:13;;;;;;;25.48;16.67;;;;;;;18.47;78.68;100644.09;4986892;28;20480;-73
2021/06/30 08:13:39;;;;;;;24.70;16.75;;;;;;;18.57;78.58;100647.66;4997489;28;20038;-76
2021/06/30 08:16:04;;;;;;;24.77;16.23;;;;;;;18.62;78.45;100645.44;4980891;28;20383;-76
2021/06/30 08:18:30;;;;;;;26.08;16.88;;;;;;;18.70;78.40;100640.91;4977717;28;20069;-76
2021/06/30 08:20:55;;;;;;;24.45;15.48;;;;;;;18.77;77.80;100632.75;4992010;28;20037;-76
2021/06/30 08:23:21;;;;;;;25.25;15.18;;;;;;;18.86;77.58;100641.09;4970617;28;20513;-76
2021/06/30 08:25:49;;;;;;;20.50;13.75;;;;;;;18.94;77.12;100634.53;4994935;28;20030;-76
2021/06/30 08:28:18;;;;;;;21.73;14.48;;;;;;;19.02;77.27;100641.25;4980994;28;20529;-77
2021/06/30 08:30:44;;;;;;;22.90;15.38;;;;;;;19.11;77.29;100636.34;4971597;28;20050;-76
2021/06/30 08:33:10;;;;;;;23.70;14.27;;;;;;;19.21;76.90;100644.34;4975109;28;20030;-76
2021/06/30 08:35:35;;;;;;;22.55;12.98;;;;;;;19.33;76.80;100646.34;4964814;28;20038;-76
2021/06/30 08:38:01;;;;;;;20.65;13.65;;;;;;;19.44;76.39;100641.91;4977660;28;20034;-77
2021/06/30 08:40:27;;;;;;;19.80;13.80;;;;;;;19.56;75.95;100652.38;4973689;28;20033;-76
2021/06/30 08:42:52;;;;;;;21.00;13.57;;;;;;;19.65;75.59;100653.06;4962617;28;20050;-77
2021/06/30 08:45:19;;;;;;;22.40;13.80;;;;;;;19.72;74.97;100646.88;4987268;28;20037;-77
2021/06/30 08:47:45;;;;;;;22.38;13.85;;;;;;;19.82;74.71;100640.78;4979268;28;20038;-77
2021/06/30 08:50:11;;;;;;;20.60;13.98;;;;;;;19.90;74.54;100641.81;4978722;28;20507;-76
2021/06/30 08:52:37;;;;;;;21.48;14.65;;;;;;;19.97;74.38;100642.84;4983721;28;20026;-76
2021/06/30 08:55:04;;;;;;;21.25;14.13;;;;;;;20.04;74.06;100645.91;4981354;28;20166;-76
2021/06/30 08:57:30;;;;;;;19.52;12.65;;;;;;;20.11;73.89;100636.03;4967585;28;20026;-76
2021/06/30 08:59:55;;;;;;;19.25;12.82;;;;;;;20.18;73.97;100653.16;4980035;28;20057;-77
2021/06/30 09:02:21;;;;;;;20.13;12.80;;;;;;;20.24;73.50;100643.28;4980660;28;20472;-76
2021/06/30 09:04:47;;;;;;;19.67;13.52;;;;;;;20.27;73.45;100649.03;4951531;28;20039;-77
2021/06/30 09:07:12;;;;;;;20.33;12.48;;;;;;;20.33;73.08;100646.78;4974521;28;20062;-77
2021/06/30 09:09:39;;;;;;;19.10;12.40;;;;;;;20.36;72.91;100656.53;4991738;28;20034;-77
2021/06/30 09:12:06;;;;;;;17.67;12.48;;;;;;;20.38;72.66;100655.00;4981574;28;20042;-77
2021/06/30 09:14:38;;;;;;;19.00;12.13;;;;;;;20.41;72.22;100656.28;4981015;28;20058;-76
2021/06/30 09:19:55;;;;;;;18.65;12.27;;;;;;;20.46;72.29;100659.66;4974663;28;20026;-76
2021/06/30 09:22:23;;;;;;;17.88;11.43;;;;;;;20.49;72.16;100649.66;4989052;28;20080;-76
2021/06/30 09:24:48;;;;;;;18.90;11.73;;;;;;;20.51;72.05;100661.44;4986190;28;20041;-76
2021/06/30 09:27:15;;;;;;;17.17;11.90;;;;;;;20.51;72.29;100659.41;4987758;28;20035;-76
2021/06/30 09:29:42;;;;;;;17.40;12.10;;;;;;;20.50;72.17;100656.94;4976029;28;20550;-76
2021/06/30 09:32:10;;;;;;;17.13;12.45;;;;;;;20.49;71.91;100655.31;4957987;28;20030;-76
2021/06/30 09:34:36;;;;;;;19.63;13.55;;;;;;;20.50;72.00;100657.78;4990902;28;20105;-76
2021/06/30 09:37:05;;;;;;;17.83;11.65;;;;;;;20.49;72.23;100655.31;4990601;28;20065;-76
2021/06/30 09:39:35;;;;;;;18.75;12.70;;;;;;;20.47;72.15;100654.84;5010805;28;20026;-77
2021/06/30 09:42:04;;;;;;;20.70;13.75;;;;;;;20.49;72.16;100658.13;5001504;28;20037;-76
2021/06/30 09:44:31;;;;;;;18.52;12.90;;;;;;;20.47;72.03;100660.47;4995265;28;20030;-76
2021/06/30 09:46:57;;;;;;;23.13;13.10;;;;;;;20.47;72.25;100660.47;4993615;28;20033;-76
2021/06/30 09:49:23;;;;;;;21.23;13.68;;;;;;;20.45;72.22;100662.88;4963319;28;20030;-76
2021/06/30 09:52:19;;;;;;;21.33;14.43;;;;;;;20.45;72.86;100665.69;4998333;28;20037;-76
2021/06/30 09:54:46;;;;;;;24.63;16.88;;;;;;;20.46;72.86;100670.13;4998481;28;20026;-76
2021/06/30 09:57:13;;;;;;;21.33;14.50;;;;;;;20.46;72.78;100665.31;5009016;28;20111;-75
2021/06/30 09:59:40;;;;;;;21.42;14.07;;;;;;;20.46;72.62;100665.31;4974384;28;20045;-75
2021/06/30 10:02:11;;;;;;;20.42;14.07;;;;;;;20.45;72.61;100668.50;4985583;28;20026;-76
2021/06/30 10:04:37;;;;;;;25.17;16.85;;;;;;;20.44;72.56;100666.84;4963759;28;20034;-75
2021/06/30 10:07:05;;;;;;;25.67;15.52;;;;;;;20.41;72.96;100667.56;5014891;28;20470;-75
2021/06/30 10:09:30;;;;;;;22.38;15.15;;;;;;;20.38;72.94;100668.28;4986161;28;20034;-76
2021/06/30 10:12:10;;;;;;;22.80;14.73;;;;;;;20.36;73.09;100667.81;4998483;28;20029;-76
2021/06/30 10:14:37;;;;;;;25.13;15.90;;;;;;;20.34;73.34;100668.19;4998473;28;20408;-76
2021/06/30 10:17:03;;;;;;;25.58;15.85;;;;;;;20.36;73.50;100670.63;4993029;28;20077;-76
2021/06/30 10:19:29;;;;;;;24.75;15.23;;;;;;;20.37;73.85;100675.09;4998769;28;20038;-76
2021/06/30 10:21:55;;;;;;;26.85;15.65;;;;;;;20.42;73.82;100672.00;5006312;28;20022;-76
2021/06/30 10:24:22;;;;;;;22.83;14.05;;;;;;;20.47;73.88;100674.59;4983888;28;20026;-75
2021/06/30 10:26:48;;;;;;;26.35;15.27;;;;;;;20.53;73.85;100671.22;4995187;28;20454;-75
2021/06/30 10:29:14;;;;;;;22.67;14.13;;;;;;;20.62;73.34;100668.22;4964170;28;20029;-75
2021/06/30 10:31:41;;;;;;;18.80;12.80;;;;;;;20.71;72.81;100674.53;5001961;28;20026;-75
2021/06/30 10:34:12;;;;;;;22.55;13.77;;;;;;;20.82;73.27;100676.84;4991492;28;20375;-75
2021/06/30 10:36:47;;;;;;;20.75;14.48;;;;;;;20.94;72.83;100679.59;4970667;28;20076;-75
2021/06/30 10:39:14;;;;;;;21.52;13.90;;;;;;;21.06;72.63;100676.75;4986348;28;20042;-76
2021/06/30 10:41:52;;;;;;;23.10;14.45;;;;;;;21.20;71.76;100673.47;5020551;28;20029;-75
2021/06/30 10:44:24;;;;;;;20.05;13.05;;;;;;;21.30;71.69;100669.28;5009050;28;20048;-76
2021/06/30 10:46:52;;;;;;;20.73;13.75;;;;;;;21.38;71.74;100665.50;5011266;28;20029;-76
2021/06/30 10:49:31;;;;;;;18.48;13.43;;;;;;;21.49;71.28;100671.44;4998137;28;20029;-76
2021/06/30 10:51:57;;;;;;;24.70;14.32;;;;;;;21.59;70.72;100682.16;4992860;28;20076;-75
2021/06/30 10:54:41;;;;;;;21.35;13.95;;;;;;;21.68;70.64;100677.16;5009452;28;20029;-75
2021/06/30 10:57:28;;;;;;;22.70;14.10;;;;;;;21.78;70.30;100684.25;5018708;28;20030;-74
2021/06/30 11:00:06;;;;;;;23.48;15.45;;;;;;;21.83;70.25;100684.81;5006881;28;20132;-73
2021/06/30 11:02:35;;;;;;;21.67;14.45;;;;;;;21.84;70.07;100683.63;5012381;28;20037;-74
2021/06/30 11:05:12;;;;;;;25.60;14.85;;;;;;;21.87;69.95;100687.75;5000033;28;20391;-74
2021/06/30 11:07:38;;;;;;;28.65;15.75;;;;;;;21.84;69.25;100694.09;5014779;28;20034;-74
2021/06/30 11:10:16;;;;;;;24.17;15.52;;;;;;;21.84;69.39;100694.94;4984316;28;20065;-74